Time;durP1;ratioP1;P1;durP2;ratioP2;P2;SDS_P1;SDS_P2;PMS_P1;PMS_P2;Temp;Humidity;BMP_temperature;BMP_pressure;BME280_temperature;BME280_humidity;BME280_pressure;Samples;Min_cycle;Max_cycle;Signal;HPM_P1;HPM_P2
2021/12/30 00:03:39;;;;;;;19.95;7.22;;;;;;;7.63;100.00;100528.72;15292690;19;20023;-67
2021/12/30 00:08:41;;;;;;;23.33;6.68;;;;;;;7.56;100.00;100539.00;15293788;19;20078;-67
2021/12/30 00:13:45;;;;;;;24.67;6.65;;;;;;;7.56;100.00;100539.00;15288575;19;20009;-67
2021/12/30 00:18:47;;;;;;;20.10;6.30;;;;;;;7.50;100.00;100549.25;15291473;19;20074;-66
2021/12/30 00:23:50;;;;;;;17.73;6.05;;;;;;;7.43;100.00;100565.56;15289528;19;20070;-67
2021/12/30 00:28:52;;;;;;;16.30;5.35;;;;;;;7.37;100.00;100560.19;15292059;19;20010;-66
2021/12/30 00:33:56;;;;;;;30.83;5.65;;;;;;;7.42;100.00;100574.25;15287644;19;20014;-66
2021/12/30 00:38:57;;;;;;;17.27;4.50;;;;;;;7.44;100.00;100575.16;15290409;19;20007;-66
2021/12/30 00:44:00;;;;;;;14.05;4.10;;;;;;;7.34;100.00;100573.16;15285000;19;20046;-66
2021/12/30 00:49:03;;;;;;;19.98;4.78;;;;;;;7.31;100.00;100573.06;15291087;19;20026;-66
2021/12/30 00:54:05;;;;;;;27.70;5.20;;;;;;;7.28;100.00;100591.22;15287176;19;20081;-66
2021/12/30 00:59:07;;;;;;;14.27;3.80;;;;;;;7.19;100.00;100618.78;15290752;19;20021;-67
2021/12/30 01:04:09;;;;;;;14.18;3.55;;;;;;;7.24;100.00;100626.72;15291258;19;20035;-66
2021/12/30 01:09:10;;;;;;;21.92;3.50;;;;;;;7.18;100.00;100653.47;15290266;19;20760;-66
2021/12/30 01:14:19;;;;;;;20.25;4.63;;;;;;;7.18;100.00;100650.00;15284268;19;20466;-67
2021/12/30 01:24:24;;;;;;;13.88;3.38;;;;;;;7.04;100.00;100665.19;15298947;19;20569;-66
2021/12/30 01:29:29;;;;;;;20.67;4.18;;;;;;;7.10;100.00;100688.84;15303669;19;20611;-66
2021/12/30 01:34:32;;;;;;;19.02;3.80;;;;;;;7.05;100.00;100685.19;15298692;19;20036;-67
2021/12/30 01:39:41;;;;;;;20.15;3.88;;;;;;;7.12;100.00;100684.53;15300699;19;20014;-66
2021/12/30 01:44:43;;;;;;;27.48;4.53;;;;;;;7.05;100.00;100698.22;15297342;19;20010;-67
2021/12/30 01:49:46;;;;;;;14.15;3.92;;;;;;;7.00;100.00;100720.63;15302776;19;20075;-66
2021/12/30 01:54:48;;;;;;;31.60;5.30;;;;;;;7.02;100.00;100699.00;15298065;19;20022;-66
2021/12/30 01:59:50;;;;;;;24.23;4.63;;;;;;;7.00;100.00;100694.59;15303199;19;20490;-66
2021/12/30 02:04:52;;;;;;;18.20;4.75;;;;;;;7.06;100.00;100698.25;15299156;19;20366;-66
2021/12/30 02:10:00;;;;;;;26.85;5.25;;;;;;;7.19;100.00;100696.91;15301797;19;20020;-67
2021/12/30 02:15:05;;;;;;;25.33;5.45;;;;;;;7.14;100.00;100688.06;15295972;19;20545;-67
2021/12/30 02:20:11;;;;;;;25.00;5.72;;;;;;;7.14;100.00;100693.28;15300017;19;20027;-67
2021/12/30 02:25:12;;;;;;;18.27;5.15;;;;;;;7.17;100.00;100692.47;15296057;19;20017;-67
2021/12/30 02:30:14;;;;;;;33.20;5.38;;;;;;;7.12;100.00;100707.09;15298767;19;20023;-67
2021/12/30 02:35:16;;;;;;;32.55;6.13;;;;;;;7.05;100.00;100726.84;15295406;19;20034;-67
2021/12/30 02:40:31;;;;;;;26.00;5.38;;;;;;;7.04;100.00;100715.56;15298220;19;20082;-66
2021/12/30 02:45:33;;;;;;;35.30;5.85;;;;;;;6.96;100.00;100714.44;15298735;19;20020;-67
2021/12/30 02:50:36;;;;;;;28.55;4.90;;;;;;;6.93;100.00;100736.91;15298581;19;20414;-66
2021/12/30 02:55:37;;;;;;;20.83;4.13;;;;;;;6.89;100.00;100786.25;15293892;19;20496;-66
2021/12/30 03:00:41;;;;;;;20.83;3.92;;;;;;;6.93;100.00;100788.97;15298166;19;20009;-65
2021/12/30 03:05:43;;;;;;;30.17;4.97;;;;;;;6.92;100.00;100788.09;15296418;19;20014;-67
2021/12/30 03:10:45;;;;;;;31.77;4.60;;;;;;;6.95;100.00;100801.19;15295815;19;20082;-67
2021/12/30 03:15:47;;;;;;;27.83;4.00;;;;;;;6.98;100.00;100789.97;15295010;19;20019;-66
2021/12/30 03:20:49;;;;;;;18.95;3.80;;;;;;;6.95;100.00;100785.56;15295241;19;20023;-66
2021/12/30 03:25:50;;;;;;;20.73;3.53;;;;;;;6.86;100.00;100778.34;15295354;19;20082;-66
2021/12/30 03:30:52;;;;;;;22.20;3.60;;;;;;;6.84;100.00;100793.00;15296165;19;20087;-66
2021/12/30 03:35:59;;;;;;;20.80;3.08;;;;;;;6.85;100.00;100796.53;15294642;19;20012;-67
2021/12/30 03:41:01;;;;;;;22.20;3.53;;;;;;;6.71;100.00;100793.44;15291424;19;20026;-67
2021/12/30 03:46:05;;;;;;;23.38;3.53;;;;;;;6.75;100.00;100787.50;15293952;19;20011;-66
2021/12/30 03:51:09;;;;;;;24.60;3.58;;;;;;;6.77;100.00;100782.34;15295058;19;20074;-66
2021/12/30 03:56:13;;;;;;;24.00;3.05;;;;;;;6.72;100.00;100779.59;15292716;19;20074;-67
2021/12/30 04:01:18;;;;;;;29.60;4.22;;;;;;;6.73;100.00;100770.97;15294432;19;20469;-65
2021/12/30 04:06:20;;;;;;;25.63;4.28;;;;;;;6.72;100.00;100771.81;15294074;19;20018;-67
2021/12/30 04:11:24;;;;;;;27.95;4.95;;;;;;;6.82;100.00;100760.84;15290997;19;20074;-67
2021/12/30 04:16:26;;;;;;;18.92;4.00;;;;;;;6.88;100.00;100779.28;15290665;19;20073;-66
2021/12/30 04:21:28;;;;;;;24.85;4.72;;;;;;;6.95;100.00;100780.38;15292952;19;20031;-66
2021/12/30 04:26:30;;;;;;;36.60;6.03;;;;;;;7.06;100.00;100762.47;15292226;19;20094;-66
2021/12/30 04:31:32;;;;;;;28.88;6.28;;;;;;;7.06;100.00;100752.94;15292423;19;20018;-67
2021/12/30 04:36:33;;;;;;;24.05;6.57;;;;;;;7.08;100.00;100755.59;15291788;19;20019;-67
2021/12/30 04:41:35;;;;;;;37.63;6.55;;;;;;;7.22;100.00;100750.78;15290134;19;20560;-67
2021/12/30 04:46:38;;;;;;;30.75;6.57;;;;;;;7.24;100.00;100757.81;15288723;19;20042;-67
2021/12/30 04:51:40;;;;;;;35.72;7.15;;;;;;;7.21;100.00;100762.94;15293084;19;20021;-66
2021/12/30 04:56:42;;;;;;;45.33;8.10;;;;;;;7.36;100.00;100766.84;15303512;19;20015;-67
2021/12/30 05:01:44;;;;;;;35.92;8.77;;;;;;;7.35;100.00;100767.69;15306701;19;20018;-67
2021/12/30 05:06:46;;;;;;;35.28;8.07;;;;;;;7.34;100.00;100759.00;15305709;19;20548;-67
2021/12/30 05:11:47;;;;;;;37.10;7.82;;;;;;;7.40;100.00;100785.22;15303550;19;20010;-67
2021/12/30 05:16:51;;;;;;;38.15;7.95;;;;;;;7.42;100.00;100777.44;15301180;19;20020;-67
2021/12/30 05:21:53;;;;;;;34.47;10.45;;;;;;;7.52;100.00;100800.34;15302064;19;20636;-67
2021/12/30 05:26:55;;;;;;;37.08;10.15;;;;;;;7.58;100.00;100808.34;15304044;19;20085;-67
2021/12/30 05:31:57;;;;;;;34.15;10.30;;;;;;;7.67;100.00;100775.53;15301547;19;20011;-67
2021/12/30 05:36:58;;;;;;;37.75;10.40;;;;;;;7.65;100.00;100798.09;15301817;19;20499;-67
2021/12/30 05:42:00;;;;;;;46.03;12.68;;;;;;;7.73;100.00;100788.75;15300836;19;20085;-67
2021/12/30 05:47:03;;;;;;;36.38;10.57;;;;;;;7.78;100.00;100777.63;15301762;19;20474;-67
2021/12/30 05:52:04;;;;;;;43.03;10.27;;;;;;;7.82;100.00;100764.69;15300097;19;20491;-66
2021/12/30 05:57:06;;;;;;;38.88;10.73;;;;;;;7.88;100.00;100772.66;15300286;19;20058;-67
2021/12/30 06:02:08;;;;;;;47.72;11.02;;;;;;;7.93;100.00;100808.47;15298579;19;20411;-67
2021/12/30 06:07:10;;;;;;;33.72;10.07;;;;;;;7.90;100.00;100800.56;15300888;19;20013;-67
2021/12/30 06:12:11;;;;;;;34.70;10.05;;;;;;;7.93;100.00;100792.81;15299030;19;20034;-67
2021/12/30 06:17:15;;;;;;;34.40;10.23;;;;;;;7.99;100.00;100789.50;15299025;19;20015;-67
2021/12/30 06:22:16;;;;;;;40.83;10.75;;;;;;;8.02;100.00;100801.75;15298945;19;20477;-67
2021/12/30 06:27:18;;;;;;;36.08;9.43;;;;;;;8.12;100.00;100796.81;15300971;19;20015;-67
2021/12/30 06:32:20;;;;;;;52.55;10.98;;;;;;;8.17;100.00;100799.56;15299056;19;20014;-66
2021/12/30 06:37:21;;;;;;;33.83;10.23;;;;;;;8.20;100.00;100775.28;15299204;19;20506;-67
2021/12/30 06:42:23;;;;;;;37.65;11.23;;;;;;;8.28;100.00;100790.28;15295724;19;20022;-66
2021/12/30 06:47:25;;;;;;;39.00;10.90;;;;;;;8.34;100.00;100784.34;15297497;19;20018;-67
2021/12/30 06:52:27;;;;;;;27.80;10.25;;;;;;;8.44;100.00;100788.13;15296055;19;20018;-66
2021/12/30 06:57:29;;;;;;;40.80;10.35;;;;;;;8.51;100.00;100803.06;15296684;19;20010;-67
2021/12/30 07:02:30;;;;;;;34.08;9.98;;;;;;;8.55;100.00;100811.88;15299873;19;20031;-67
2021/12/30 07:07:32;;;;;;;32.72;10.30;;;;;;;8.61;100.00;100809.41;15297843;19;20093;-67
2021/12/30 07:12:36;;;;;;;33.78;10.82;;;;;;;8.62;100.00;100785.97;15295522;19;20015;-66
2021/12/30 07:17:39;;;;;;;27.90;10.05;;;;;;;8.69;100.00;100799.16;15292874;19;20014;-66
2021/12/30 07:22:41;;;;;;;36.88;10.00;;;;;;;8.69;100.00;100800.03;15292544;19;20078;-67
2021/12/30 07:27:52;;;;;;;27.02;9.02;;;;;;;8.68;100.00;100798.28;15296145;19;20010;-67
2021/12/30 07:32:54;;;;;;;28.63;9.18;;;;;;;8.74;100.00;100795.84;15294003;19;20066;-67
2021/12/30 07:37:58;;;;;;;27.50;8.23;;;;;;;8.83;100.00;100793.44;15295939;19;20015;-68
2021/12/30 07:43:00;;;;;;;30.17;10.20;;;;;;;8.90;100.00;100802.28;15293012;19;20101;-67
2021/12/30 07:48:02;;;;;;;29.38;9.07;;;;;;;8.90;100.00;100804.03;15293994;19;20018;-67
2021/12/30 07:53:04;;;;;;;32.83;9.25;;;;;;;8.88;100.00;100808.34;15291135;19;20010;-68
2021/12/30 07:58:05;;;;;;;26.58;7.97;;;;;;;8.89;100.00;100797.94;15293025;19;20027;-68
2021/12/30 08:03:07;;;;;;;27.80;9.02;;;;;;;9.01;100.00;100802.56;15296077;19;20074;-67
2021/12/30 08:08:08;;;;;;;26.33;9.27;;;;;;;9.08;100.00;100795.75;15294605;19;20077;-68
2021/12/30 08:13:10;;;;;;;28.60;9.68;;;;;;;9.12;100.00;100800.22;15290125;19;20084;-68
2021/12/30 08:18:13;;;;;;;29.15;9.88;;;;;;;9.22;100.00;100820.47;15292176;19;20018;-69
2021/12/30 08:23:14;;;;;;;32.40;10.13;;;;;;;9.30;100.00;100824.13;15289334;19;20015;-69
2021/12/30 08:28:17;;;;;;;30.25;10.43;;;;;;;9.35;100.00;100816.41;15303044;19;20106;-69
2021/12/30 08:33:19;;;;;;;22.83;9.68;;;;;;;9.42;100.00;100810.47;15303656;19;20011;-69
2021/12/30 08:38:20;;;;;;;22.27;9.43;;;;;;;9.48;100.00;100807.09;15307420;19;20019;-68
2021/12/30 08:43:22;;;;;;;23.42;9.23;;;;;;;9.58;100.00;100803.84;15304297;19;20007;-68
2021/12/30 08:48:24;;;;;;;22.77;8.38;;;;;;;9.71;100.00;100800.66;15305771;19;20011;-68
2021/12/30 08:53:28;;;;;;;19.77;7.45;;;;;;;9.82;100.00;100797.38;15303386;19;20014;-68
2021/12/30 08:58:30;;;;;;;16.85;7.13;;;;;;;9.83;100.00;100794.78;15304829;19;20027;-68
2021/12/30 09:03:31;;;;;;;20.98;6.88;;;;;;;9.93;100.00;100790.59;15305464;19;20014;-68
2021/12/30 09:08:33;;;;;;;17.52;5.45;;;;;;;9.99;100.00;100803.81;15303452;19;20511;-66
2021/12/30 09:13:34;;;;;;;16.88;5.85;;;;;;;10.11;100.00;100791.84;15299320;19;20014;-68
2021/12/30 09:18:36;;;;;;;20.85;6.43;;;;;;;10.18;100.00;100804.19;15296556;19;20116;-68
2021/12/30 09:23:38;;;;;;;14.63;5.65;;;;;;;10.18;100.00;100797.19;15299230;19;20488;-69
2021/12/30 09:28:39;;;;;;;12.13;5.20;;;;;;;10.24;100.00;100799.06;15302243;19;20075;-68
2021/12/30 09:33:41;;;;;;;13.25;4.80;;;;;;;10.36;100.00;100801.06;15298023;19;20015;-68
2021/12/30 09:38:43;;;;;;;14.82;5.25;;;;;;;10.37;100.00;100797.56;15302198;19;20078;-69
2021/12/30 09:43:44;;;;;;;14.18;4.60;;;;;;;10.46;100.00;100795.09;15292164;19;20023;-65
2021/12/30 09:48:48;;;;;;;14.82;4.60;;;;;;;10.48;100.00;100792.50;15302094;19;20485;-68
2021/12/30 09:53:50;;;;;;;12.70;4.18;;;;;;;10.50;100.00;100798.69;15294790;19;20610;-69
2021/12/30 09:58:52;;;;;;;8.45;3.15;;;;;;;10.53;100.00;100807.47;15300530;19;20110;-70
2021/12/30 10:04:01;;;;;;;9.13;2.90;;;;;;;10.59;100.00;100802.31;15300046;19;20171;-69
2021/12/30 10:09:11;;;;;;;11.27;3.05;;;;;;;10.63;100.00;100800.66;15301135;19;20049;-70
2021/12/30 10:14:26;;;;;;;8.65;3.33;;;;;;;10.64;100.00;100802.41;15296536;19;20078;-70
2021/12/30 10:19:29;;;;;;;5.40;2.15;;;;;;;10.65;100.00;100804.16;15299233;19;20081;-68
2021/12/30 10:24:32;;;;;;;9.50;2.47;;;;;;;10.68;100.00;100798.97;15289658;19;20010;-69
2021/12/30 10:29:44;;;;;;;5.15;2.05;;;;;;;10.75;100.00;100808.72;15290471;19;20089;-68
2021/12/30 10:35:05;;;;;;;6.18;2.55;;;;;;;10.78;100.00;100806.16;15290220;19;20031;-68
2021/12/30 10:40:25;;;;;;;5.95;2.20;;;;;;;10.83;100.00;100807.97;15295241;19;20097;-70
2021/12/30 10:45:26;;;;;;;4.47;1.83;;;;;;;10.81;100.00;100820.13;15294009;19;20058;-68
2021/12/30 10:50:28;;;;;;;4.32;2.03;;;;;;;10.90;100.00;100815.03;15262367;19;20481;-70
2021/12/30 10:55:33;;;;;;;6.18;2.05;;;;;;;10.90;100.00;100820.28;15138809;19;20243;-69
2021/12/30 11:00:35;;;;;;;5.78;2.00;;;;;;;10.91;100.00;100828.19;14846103;19;20612;-68
2021/12/30 11:06:19;;;;;;;5.50;1.90;;;;;;;10.95;100.00;100819.50;14960233;19;20022;-69
2021/12/30 11:11:28;;;;;;;6.82;2.20;;;;;;;10.99;100.00;100833.56;15025572;19;20278;-68
2021/12/30 11:16:32;;;;;;;5.65;2.65;;;;;;;11.04;100.00;100823.16;15097595;19;20310;-68
2021/12/30 11:21:42;;;;;;;5.97;2.35;;;;;;;11.09;100.00;100822.38;15049162;19;20046;-69
2021/12/30 11:26:44;;;;;;;7.50;2.47;;;;;;;11.14;100.00;100819.81;15095641;19;20093;-68
2021/12/30 11:31:47;;;;;;;6.38;2.83;;;;;;;11.18;100.00;100826.84;15109744;19;20038;-69
2021/12/30 11:36:49;;;;;;;7.65;3.40;;;;;;;11.19;100.00;100814.63;15121399;19;20025;-69
2021/12/30 11:41:57;;;;;;;8.27;3.60;;;;;;;11.13;100.00;100821.53;15160736;19;20106;-69
2021/12/30 11:47:00;;;;;;;8.05;3.72;;;;;;;11.16;100.00;100827.69;15162613;19;20284;-69
2021/12/30 11:52:02;;;;;;;9.25;2.90;;;;;;;11.10;100.00;100831.97;15161215;19;20021;-69
2021/12/30 11:57:23;;;;;;;8.23;3.40;;;;;;;11.15;100.00;100829.41;15162476;19;20287;-68
2021/12/30 12:02:34;;;;;;;10.65;3.92;;;;;;;11.16;100.00;100835.56;15162260;19;20496;-68
2021/12/30 12:08:07;;;;;;;7.22;3.47;;;;;;;11.16;100.00;100835.56;15165457;19;20499;-68
2021/12/30 12:13:30;;;;;;;7.65;3.28;;;;;;;11.20;100.00;100843.50;15139153;19;20838;-67
2021/12/30 12:18:33;;;;;;;7.03;2.90;;;;;;;11.11;100.00;100849.47;15116020;19;20015;-68
2021/12/30 12:23:45;;;;;;;7.25;2.95;;;;;;;11.13;100.00;100855.59;15103664;19;20015;-68
2021/12/30 12:28:50;;;;;;;8.00;3.38;;;;;;;11.10;100.00;100857.31;15114625;19;20556;-67
2021/12/30 12:33:58;;;;;;;8.75;3.35;;;;;;;11.14;100.00;100854.75;15075121;19;20238;-70
2021/12/30 12:39:00;;;;;;;9.48;3.28;;;;;;;11.14;100.00;100862.63;15094597;19;20023;-67
2021/12/30 12:44:07;;;;;;;5.20;2.40;;;;;;;11.10;100.00;100858.19;15089909;19;20022;-68
2021/12/30 12:49:09;;;;;;;7.00;2.83;;;;;;;11.15;100.00;100855.63;15060870;19;20861;-68
2021/12/30 12:54:11;;;;;;;8.13;2.63;;;;;;;11.15;100.00;100863.50;15099021;19;20037;-68
2021/12/30 12:59:14;;;;;;;9.80;3.17;;;;;;;11.16;100.00;100867.88;15102905;19;20062;-69
2021/12/30 13:04:16;;;;;;;7.22;3.08;;;;;;;11.13;100.00;100865.22;14817445;19;20664;-68
2021/12/30 13:09:39;;;;;;;11.50;4.82;;;;;;;11.11;100.00;100867.81;14934258;19;20064;-69
2021/12/30 13:14:46;;;;;;;7.93;3.30;;;;;;;11.13;100.00;100881.81;14891282;19;20871;-68
2021/12/30 13:19:54;;;;;;;14.35;3.90;;;;;;;11.11;100.00;100874.81;14919333;19;20874;-68
2021/12/30 13:25:01;;;;;;;12.25;4.05;;;;;;;11.16;100.00;100880.13;14819811;19;20491;-68
2021/12/30 13:30:17;;;;;;;12.77;3.45;;;;;;;11.15;100.00;100884.44;14976507;19;20824;-67
2021/12/30 13:35:27;;;;;;;11.23;3.60;;;;;;;11.18;100.00;100878.38;14928837;19;20539;-68
2021/12/30 13:40:36;;;;;;;12.98;3.75;;;;;;;11.06;100.00;100887.81;14983610;19;20028;-68
2021/12/30 13:46:40;;;;;;;14.05;4.10;;;;;;;11.09;100.00;100900.97;14987438;19;20183;-67
2021/12/30 13:51:25;;;;;;;17.33;5.20;;;;;;;11.00;100.00;100910.41;14939484;19;20546;-67
2021/12/30 13:56:28;;;;;;;18.42;4.55;;;;;;;11.01;100.00;100918.28;14903783;19;20503;-66
2021/12/30 14:01:35;;;;;;;19.80;4.85;;;;;;;10.99;100.00;100920.03;14942027;19;20410;-68
2021/12/30 14:12:54;;;;;;;14.88;4.00;;;;;;;10.96;100.00;100935.69;14754071;19;20319;-68
2021/12/30 14:30:14;;;;;;;18.33;3.97;;;;;;;10.98;100.00;100965.41;14738983;19;20809;-66
2021/12/30 14:35:37;;;;;;;17.30;4.53;;;;;;;10.95;100.00;100955.75;14638059;19;2004210;-66
2021/12/30 14:40:49;;;;;;;15.05;4.13;;;;;;;10.93;100.00;100975.81;14754662;19;20362;-66
2021/12/30 14:46:11;;;;;;;13.75;4.93;;;;;;;10.98;100.00;100972.41;14742557;19;20385;-66
2021/12/30 14:51:18;;;;;;;9.73;4.28;;;;;;;10.93;100.00;100983.66;14705329;19;20983;-68
2021/12/30 14:56:28;;;;;;;12.75;3.55;;;;;;;10.94;100.00;100995.91;14803777;19;20366;-68
2021/12/30 15:01:36;;;;;;;12.15;4.35;;;;;;;10.92;100.00;100986.25;14988440;19;20281;-68
2021/12/30 15:06:43;;;;;;;9.07;4.13;;;;;;;10.92;100.00;100994.13;14980227;19;20783;-68
2021/12/30 15:12:15;;;;;;;10.25;5.10;;;;;;;10.90;100.00;101004.56;14931510;19;20336;-68
2021/12/30 15:28:26;;;;;;;14.40;5.78;;;;;;;10.87;100.00;101012.38;14921050;19;21027;-68
2021/12/30 15:33:32;;;;;;;12.25;5.03;;;;;;;10.84;100.00;101024.50;14763442;19;20521;-68
2021/12/30 15:38:35;;;;;;;16.73;5.72;;;;;;;10.87;100.00;101028.09;14765264;19;21125;-68
2021/12/30 15:49:48;;;;;;;12.57;6.55;;;;;;;10.87;100.00;101050.75;14950423;19;20267;-68
2021/12/30 16:01:02;;;;;;;18.33;7.88;;;;;;;10.79;100.00;101054.13;15161383;19;20478;-67
2021/12/30 16:06:04;;;;;;;16.45;7.32;;;;;;;10.81;100.00;101056.78;15185900;19;20889;-68
2021/12/30 16:11:06;;;;;;;22.08;10.18;;;;;;;10.80;100.00;101065.47;15143377;19;20078;-68
2021/12/30 16:16:08;;;;;;;32.80;9.20;;;;;;;10.79;100.00;101069.84;15238663;19;20146;-68
2021/12/30 16:21:10;;;;;;;24.98;9.25;;;;;;;10.79;100.00;101080.34;15289870;19;20007;-67
2021/12/30 16:26:12;;;;;;;23.73;9.90;;;;;;;10.84;100.00;101076.91;15177221;19;20014;-68
2021/12/30 16:31:14;;;;;;;33.28;10.98;;;;;;;10.88;100.00;101079.59;15268258;19;20011;-68
2021/12/30 16:36:16;;;;;;;28.05;9.88;;;;;;;10.87;100.00;101082.19;15279349;19;20031;-68
2021/12/30 16:41:17;;;;;;;27.58;9.95;;;;;;;10.84;100.00;101075.19;15289189;19;20019;-67
2021/12/30 16:46:22;;;;;;;24.52;9.63;;;;;;;10.90;100.00;101079.63;15289436;19;20018;-67
2021/12/30 16:51:25;;;;;;;35.90;11.93;;;;;;;10.92;100.00;101091.94;15304317;19;20017;-68
2021/12/30 16:56:27;;;;;;;31.27;12.48;;;;;;;10.97;100.00;101094.63;15304557;19;20074;-68
2021/12/30 17:01:29;;;;;;;25.90;11.32;;;;;;;10.92;100.00;101101.53;15305957;19;20077;-66
2021/12/30 17:06:32;;;;;;;32.58;10.70;;;;;;;10.97;100.00;101105.13;15301678;19;20018;-67
2021/12/30 17:11:34;;;;;;;37.25;10.75;;;;;;;10.96;100.00;101109.47;15301988;19;20028;-67
2021/12/30 17:16:36;;;;;;;22.00;9.63;;;;;;;11.05;100.00;101106.19;15303343;19;20010;-67
2021/12/30 17:21:37;;;;;;;37.42;16.67;;;;;;;11.04;100.00;101121.88;15303536;19;20010;-67
2021/12/30 17:26:40;;;;;;;21.00;9.70;;;;;;;11.10;100.00;101128.09;15300655;19;20394;-67
2021/12/30 17:31:41;;;;;;;33.95;11.07;;;;;;;11.02;100.00;101113.06;15302098;19;20010;-67
2021/12/30 17:36:43;;;;;;;25.20;10.68;;;;;;;11.02;100.00;101124.47;15301695;19;20078;-67
2021/12/30 17:41:45;;;;;;;20.02;8.73;;;;;;;11.02;100.00;101124.47;15301823;19;20022;-67
2021/12/30 17:46:47;;;;;;;20.02;8.40;;;;;;;11.03;100.00;101131.44;15304265;19;20103;-67
2021/12/30 17:51:49;;;;;;;27.35;10.65;;;;;;;11.02;100.00;101134.94;15302486;19;20348;-67
2021/12/30 17:56:51;;;;;;;19.38;9.38;;;;;;;10.98;100.00;101138.34;15300398;19;20021;-67
2021/12/30 18:01:54;;;;;;;29.80;10.55;;;;;;;10.97;100.00;101126.06;15298810;19;20030;-68
2021/12/30 18:06:56;;;;;;;23.15;9.60;;;;;;;10.94;100.00;101111.19;15301085;19;20014;-68
2021/12/30 18:11:58;;;;;;;20.10;10.43;;;;;;;10.93;100.00;101135.63;15238510;19;20634;-68
2021/12/30 18:17:03;;;;;;;23.40;10.85;;;;;;;10.94;100.00;101134.78;15175346;19;20583;-67
2021/12/30 18:22:05;;;;;;;19.58;10.18;;;;;;;10.91;100.00;101147.81;15174002;19;20398;-68
2021/12/30 18:27:07;;;;;;;20.48;10.13;;;;;;;10.93;100.00;101142.63;15178704;19;20110;-68
2021/12/30 18:32:09;;;;;;;23.83;9.90;;;;;;;10.92;100.00;101138.22;15128667;19;20017;-68
2021/12/30 18:37:11;;;;;;;17.75;9.07;;;;;;;10.90;100.00;101139.91;15150059;19;20498;-69
2021/12/30 18:42:14;;;;;;;19.08;9.23;;;;;;;10.92;100.00;101149.56;15117833;19;20014;-68
2021/12/30 18:47:30;;;;;;;16.33;8.73;;;;;;;10.87;100.00;101152.94;15120359;19;20581;-69
2021/12/30 18:52:34;;;;;;;22.48;9.60;;;;;;;10.89;100.00;101161.72;15131831;19;20050;-70
2021/12/30 18:57:37;;;;;;;16.92;8.48;;;;;;;10.89;100.00;101159.09;15134394;19;20041;-70
2021/12/30 19:02:39;;;;;;;16.50;8.65;;;;;;;10.88;100.00;101168.69;15127634;19;20038;-69
2021/12/30 19:07:41;;;;;;;17.63;9.00;;;;;;;10.91;100.00;101162.63;15079051;19;20287;-71
2021/12/30 19:13:10;;;;;;;20.95;9.70;;;;;;;10.93;100.00;101160.94;15079083;19;20018;-72
2021/12/30 19:18:15;;;;;;;15.95;8.18;;;;;;;10.94;100.00;101170.56;15061727;19;20014;-70
2021/12/30 19:23:45;;;;;;;18.33;8.90;;;;;;;10.96;100.00;101171.50;15092234;19;20592;-71
2021/12/30 19:29:03;;;;;;;14.00;7.15;;;;;;;10.99;100.00;101173.28;15057268;19;20022;-70
2021/12/30 19:34:05;;;;;;;17.52;8.30;;;;;;;10.96;100.00;101171.50;15148623;19;20576;-69
2021/12/30 19:39:09;;;;;;;17.50;7.63;;;;;;;10.98;100.00;101169.78;15168082;19;20010;-70
2021/12/30 19:44:12;;;;;;;17.98;7.43;;;;;;;10.93;100.00;101171.44;15162945;19;20708;-71
2021/12/30 19:49:15;;;;;;;13.52;6.90;;;;;;;10.98;100.00;101174.16;15168931;19;20101;-70
2021/12/30 19:54:17;;;;;;;15.25;7.05;;;;;;;11.00;100.00;101183.78;15167083;19;20006;-70
2021/12/30 19:59:22;;;;;;;13.35;6.82;;;;;;;11.03;100.00;101173.38;15171811;19;20581;-70
2021/12/30 20:04:24;;;;;;;16.75;6.97;;;;;;;11.06;100.00;101176.06;15218619;19;20010;-70
2021/12/30 20:09:26;;;;;;;19.08;7.60;;;;;;;10.97;100.00;101178.47;15293723;19;20025;-70
2021/12/30 20:14:30;;;;;;;19.75;8.98;;;;;;;11.04;100.00;101171.66;15290855;19;20086;-70
2021/12/30 20:19:32;;;;;;;15.55;7.82;;;;;;;11.04;100.00;101175.16;15290539;19;20054;-70
2021/12/30 20:24:35;;;;;;;18.67;9.95;;;;;;;11.02;100.00;101178.59;15286865;19;20017;-69
2021/12/30 20:29:36;;;;;;;15.88;8.23;;;;;;;11.07;100.00;101190.94;15293692;19;20013;-69
2021/12/30 20:34:38;;;;;;;13.93;7.28;;;;;;;11.06;100.00;101183.91;15288835;19;20094;-69
2021/12/30 20:39:40;;;;;;;16.17;7.15;;;;;;;11.18;100.00;101180.69;15289506;19;20010;-69
2021/12/30 20:44:41;;;;;;;14.38;8.13;;;;;;;11.09;100.00;101177.88;15288071;19;20421;-69
2021/12/30 20:49:43;;;;;;;11.43;6.38;;;;;;;11.11;100.00;101187.53;15290150;19;20025;-69
2021/12/30 20:54:45;;;;;;;15.75;7.03;;;;;;;11.14;100.00;101187.59;15281680;19;20014;-69
2021/12/30 20:59:47;;;;;;;14.88;6.50;;;;;;;11.14;100.00;101192.84;15285700;19;20106;-70
2021/12/30 21:04:48;;;;;;;11.93;5.40;;;;;;;11.17;100.00;101199.91;15290681;19;20078;-69
2021/12/30 21:09:50;;;;;;;13.75;5.35;;;;;;;11.18;100.00;101211.25;15284999;19;20042;-69
2021/12/30 21:14:52;;;;;;;15.30;7.18;;;;;;;11.17;100.00;101215.63;15285137;19;20092;-69
2021/12/30 21:19:54;;;;;;;12.93;6.40;;;;;;;11.24;100.00;101208.75;15285118;19;20014;-69
2021/12/30 21:24:56;;;;;;;17.20;7.60;;;;;;;11.29;100.00;101215.00;15284293;19;20018;-69
2021/12/30 21:29:58;;;;;;;18.08;7.90;;;;;;;11.31;100.00;101222.03;15288949;19;20118;-70
2021/12/30 21:35:00;;;;;;;18.83;8.80;;;;;;;11.27;100.00;101224.56;15292947;19;20021;-69
2021/12/30 21:40:05;;;;;;;15.43;8.80;;;;;;;11.26;100.00;101220.16;15301846;19;20023;-69
2021/12/30 21:45:07;;;;;;;22.35;11.20;;;;;;;11.32;100.00;101223.81;15299916;19;20018;-69
2021/12/30 21:50:10;;;;;;;23.40;10.23;;;;;;;11.31;100.00;101223.78;15303160;19;20019;-69
2021/12/30 21:55:15;;;;;;;21.40;8.82;;;;;;;11.32;100.00;101223.81;15297441;19;20498;-69
2021/12/30 22:00:20;;;;;;;27.33;11.13;;;;;;;11.41;100.00;101216.97;15297598;19;20031;-67
2021/12/30 22:05:26;;;;;;;21.50;8.70;;;;;;;11.35;100.00;101217.75;15302489;19;20498;-69
2021/12/30 22:10:29;;;;;;;22.70;10.35;;;;;;;11.38;100.00;101207.31;15302037;19;20018;-69
2021/12/30 22:15:31;;;;;;;21.40;9.23;;;;;;;11.31;100.00;101216.78;15300853;19;20074;-69
2021/12/30 22:20:36;;;;;;;23.65;10.63;;;;;;;11.35;100.00;101209.88;15297668;19;20009;-69
2021/12/30 22:25:38;;;;;;;26.02;9.93;;;;;;;11.35;100.00;101209.88;15300438;19;20109;-69
2021/12/30 22:30:45;;;;;;;21.27;8.32;;;;;;;11.32;100.00;101218.56;15298600;19;20492;-68
2021/12/30 22:35:46;;;;;;;18.60;7.80;;;;;;;11.38;100.00;101211.66;15299214;19;20010;-68
2021/12/30 22:40:48;;;;;;;18.17;7.30;;;;;;;11.34;100.00;101204.59;15295640;19;20102;-69
2021/12/30 22:45:50;;;;;;;19.33;8.27;;;;;;;11.36;100.00;101222.13;15297280;19;20086;-70
2021/12/30 22:50:52;;;;;;;24.23;8.48;;;;;;;11.40;100.00;101221.34;15299092;19;20038;-69
2021/12/30 22:55:53;;;;;;;18.40;8.95;;;;;;;11.41;100.00;101220.50;15299529;19;20066;-69
2021/12/30 23:00:56;;;;;;;17.15;8.13;;;;;;;11.39;100.00;101224.81;15296669;19;20081;-67
2021/12/30 23:05:59;;;;;;;19.40;8.30;;;;;;;11.44;100.00;101235.38;15301694;19;20101;-69
2021/12/30 23:11:01;;;;;;;14.70;6.57;;;;;;;11.49;100.00;101232.00;15295122;19;20418;-69
2021/12/30 23:16:04;;;;;;;13.07;6.63;;;;;;;11.52;100.00;101219.84;15296219;19;20007;-70
2021/12/30 23:21:06;;;;;;;12.60;6.03;;;;;;;11.53;100.00;101227.72;15294355;19;20020;-68
2021/12/30 23:26:08;;;;;;;13.05;5.18;;;;;;;11.48;100.00;101219.78;15296377;19;20010;-68
2021/12/30 23:31:09;;;;;;;12.15;4.95;;;;;;;11.49;100.00;101229.38;15295972;19;20435;-68
2021/12/30 23:36:11;;;;;;;10.55;4.80;;;;;;;11.53;100.00;101229.44;15296925;19;20014;-69
2021/12/30 23:41:13;;;;;;;15.82;4.15;;;;;;;11.53;100.00;101217.25;15291340;19;20434;-68